createdAt,value
2023-03-06T00:01:02.294Z,4.70
2023-03-06T00:03:30.174Z,4.80
2023-03-06T00:05:58.930Z,4.70
2023-03-06T00:08:28.503Z,4.70
2023-03-06T00:10:56.736Z,4.80
2023-03-06T00:13:26.568Z,4.80
2023-03-06T00:15:54.345Z,4.80
2023-03-06T00:18:22.050Z,4.70
2023-03-06T00:20:49.636Z,4.70
2023-03-06T00:23:17.206Z,4.70
2023-03-06T00:25:46.026Z,4.70
2023-03-06T00:28:15.743Z,4.70
2023-03-06T00:30:46.049Z,4.70
2023-03-06T00:33:13.630Z,4.70
2023-03-06T00:35:41.711Z,4.70
2023-03-06T00:38:12.157Z,4.70
2023-03-06T00:40:42.474Z,4.70
2023-03-06T00:43:10.485Z,4.70
2023-03-06T00:45:38.472Z,4.70
2023-03-06T00:48:07.751Z,4.70
2023-03-06T00:50:36.264Z,4.70
2023-03-06T00:53:03.878Z,4.70
2023-03-06T00:55:33.471Z,4.70
2023-03-06T00:58:01.207Z,4.70
2023-03-06T01:00:28.968Z,4.70
2023-03-06T01:02:56.675Z,4.70
2023-03-06T01:05:24.891Z,4.70
2023-03-06T01:07:52.669Z,4.60
2023-03-06T01:10:20.472Z,4.60
2023-03-06T01:12:48.754Z,4.60
2023-03-06T01:15:16.477Z,4.60
2023-03-06T01:17:44.162Z,4.50
2023-03-06T01:20:15.257Z,4.50
2023-03-06T01:22:43.289Z,4.50
2023-03-06T01:25:11.798Z,4.50
2023-03-06T01:27:39.558Z,4.50
2023-03-06T01:30:07.852Z,4.40
2023-03-06T01:32:35.436Z,4.50
2023-03-06T01:35:03.950Z,4.40
2023-03-06T01:37:31.600Z,4.40
2023-03-06T01:39:59.123Z,4.40
2023-03-06T01:42:26.694Z,4.40
2023-03-06T01:45:20.646Z,4.40
2023-03-06T01:47:48.213Z,4.40
2023-03-06T01:50:16.169Z,4.40
2023-03-06T01:52:55.882Z,4.40
2023-03-06T01:55:29.969Z,4.40
2023-03-06T01:58:01.513Z,4.40
2023-03-06T02:00:29.803Z,4.40
2023-03-06T02:03:05.724Z,4.40
2023-03-06T02:05:34.357Z,4.40
2023-03-06T02:08:03.781Z,4.40
2023-03-06T02:10:31.567Z,4.40
2023-03-06T02:12:59.413Z,4.40
2023-03-06T02:15:29.013Z,4.40
2023-03-06T02:17:56.881Z,4.40
2023-03-06T02:20:43.922Z,4.40
2023-03-06T02:23:35.723Z,4.40
2023-03-06T02:26:05.356Z,4.40
2023-03-06T02:28:32.893Z,4.40
2023-03-06T02:31:00.783Z,4.40
2023-03-06T02:33:30.083Z,4.40
2023-03-06T02:36:03.678Z,4.40
2023-03-06T02:38:43.557Z,4.40
2023-03-06T02:41:12.402Z,4.40
2023-03-06T02:43:41.197Z,4.40
2023-03-06T02:46:08.967Z,4.40
2023-03-06T02:51:04.550Z,4.50
2023-03-06T02:53:33.123Z,4.50
2023-03-06T02:56:00.803Z,4.40
2023-03-06T02:58:28.339Z,4.50
2023-03-06T03:00:56.273Z,4.50
2023-03-06T03:03:24.009Z,4.50
2023-03-06T03:05:53.813Z,4.50
2023-03-06T03:08:25.762Z,4.40
2023-03-06T03:10:57.367Z,4.40
2023-03-06T03:13:27.076Z,4.40
2023-03-06T03:16:00.388Z,4.40
2023-03-06T03:18:28.724Z,4.40
2023-03-06T03:20:58.585Z,4.40
2023-03-06T03:23:26.958Z,4.40
2023-03-06T03:26:10.962Z,4.30
2023-03-06T03:28:41.924Z,4.30
2023-03-06T03:31:12.209Z,4.30
2023-03-06T03:33:40.891Z,4.30
2023-03-06T03:36:09.281Z,4.30
2023-03-06T03:38:43.407Z,4.30
2023-03-06T03:41:11.110Z,4.30
2023-03-06T03:43:38.692Z,4.30
2023-03-06T03:46:06.526Z,4.40
2023-03-06T03:48:34.642Z,4.40
2023-03-06T03:51:12.229Z,4.40
2023-03-06T03:53:44.715Z,4.40
2023-03-06T03:56:14.863Z,4.40
2023-03-06T03:58:54.540Z,4.40
2023-03-06T04:01:23.267Z,4.40
2023-03-06T04:03:51.163Z,4.40
2023-03-06T04:06:19.469Z,4.40
2023-03-06T04:08:47.974Z,4.40
2023-03-06T04:11:16.451Z,4.40
2023-03-06T04:13:44.530Z,4.40
2023-03-06T04:16:15.052Z,4.40
2023-03-06T04:18:43.481Z,4.40
2023-03-06T04:21:11.068Z,4.40
2023-03-06T04:23:39.642Z,4.40
2023-03-06T04:26:07.227Z,4.40
2023-03-06T04:28:34.903Z,4.40
2023-03-06T04:31:02.822Z,4.40
2023-03-06T04:33:32.125Z,4.40
2023-03-06T04:36:00.233Z,4.40
2023-03-06T04:38:31.411Z,4.50
2023-03-06T04:40:59.021Z,4.50
2023-03-06T04:43:26.711Z,4.50
2023-03-06T04:45:54.317Z,4.40
2023-03-06T04:48:21.886Z,4.50
2023-03-06T04:50:49.444Z,5.10
2023-03-06T04:53:19.606Z,4.50
2023-03-06T04:55:47.354Z,4.50
2023-03-06T04:58:15.148Z,4.50
2023-03-06T05:00:42.898Z,4.50
2023-03-06T05:03:12.234Z,4.40
2023-03-06T05:05:39.987Z,4.50
2023-03-06T05:08:07.972Z,4.50
2023-03-06T05:10:35.521Z,4.50
2023-03-06T05:13:03.029Z,4.60
2023-03-06T05:15:30.570Z,4.60
2023-03-06T05:17:58.111Z,4.60
2023-03-06T05:20:25.723Z,4.50
2023-03-06T05:22:53.343Z,4.50
2023-03-06T05:25:20.957Z,4.60
2023-03-06T05:27:48.848Z,4.60
2023-03-06T05:30:16.792Z,4.60
2023-03-06T05:32:47.013Z,4.60
2023-03-06T05:35:22.098Z,4.80
2023-03-06T05:37:50.215Z,4.60
2023-03-06T05:40:18.447Z,4.60
2023-03-06T05:42:46.128Z,4.60
2023-03-06T05:45:13.648Z,4.60
2023-03-06T05:47:41.290Z,4.70
2023-03-06T05:50:10.583Z,4.70
2023-03-06T05:52:41.674Z,4.70
2023-03-06T05:55:12.307Z,4.70
2023-03-06T05:57:40.529Z,4.70
2023-03-06T06:00:09.689Z,4.70
2023-03-06T06:02:48.466Z,4.70
2023-03-06T06:05:16.198Z,4.70
2023-03-06T06:07:43.789Z,4.70
2023-03-06T06:10:12.532Z,4.70
2023-03-06T06:12:40.113Z,4.60
2023-03-06T06:15:08.150Z,4.70
2023-03-06T06:17:35.915Z,4.70
2023-03-06T06:20:04.052Z,4.60
2023-03-06T06:22:31.616Z,4.60
2023-03-06T06:24:59.502Z,4.60
2023-03-06T06:27:27.080Z,4.60
2023-03-06T06:29:54.607Z,4.60
2023-03-06T06:32:22.259Z,4.60
2023-03-06T06:37:18.049Z,4.60
2023-03-06T06:39:45.853Z,4.50
2023-03-06T06:42:35.208Z,4.60
2023-03-06T06:45:01.242Z,4.60
2023-03-06T06:47:29.123Z,4.60
2023-03-06T06:49:57.383Z,4.60
2023-03-06T06:52:25.726Z,4.60
2023-03-06T06:54:53.458Z,4.70
2023-03-06T06:57:21.822Z,4.60
2023-03-06T06:59:51.269Z,4.70
2023-03-06T07:02:20.158Z,4.70
2023-03-06T07:05:03.163Z,4.70
2023-03-06T07:07:35.423Z,4.70
2023-03-06T07:10:06.421Z,4.70
2023-03-06T07:12:35.165Z,4.80
2023-03-06T07:15:03.783Z,4.80
2023-03-06T07:17:31.506Z,4.80
2023-03-06T07:19:59.643Z,4.80
2023-03-06T07:22:28.138Z,4.80
2023-03-06T07:24:56.650Z,4.80
2023-03-06T07:27:26.147Z,4.80
2023-03-06T07:29:53.800Z,4.80
2023-03-06T07:32:21.440Z,4.90
2023-03-06T07:34:49.072Z,4.90
2023-03-06T07:37:17.365Z,4.90
2023-03-06T07:39:44.901Z,4.90
2023-03-06T07:42:16.216Z,4.90
2023-03-06T07:44:54.718Z,4.90
2023-03-06T07:47:22.433Z,5.00
2023-03-06T07:49:50.333Z,4.90
2023-03-06T07:52:18.065Z,5.00
2023-03-06T07:54:45.559Z,5.00
2023-03-06T07:57:13.724Z,5.00
2023-03-06T07:59:41.604Z,5.00
2023-03-06T08:02:11.657Z,5.10
2023-03-06T08:04:39.616Z,5.10
2023-03-06T08:07:07.209Z,5.10
2023-03-06T08:09:36.016Z,5.10
2023-03-06T08:12:03.655Z,5.20
2023-03-06T08:14:31.228Z,5.20
2023-03-06T08:16:58.984Z,5.20
2023-03-06T08:19:26.668Z,5.30
2023-03-06T08:21:54.314Z,5.30
2023-03-06T08:24:21.885Z,5.30
2023-03-06T08:26:49.522Z,5.40
2023-03-06T08:29:17.293Z,5.40
2023-03-06T08:31:46.845Z,5.50
2023-03-06T08:34:17.593Z,5.60
2023-03-06T08:36:50.212Z,5.60
2023-03-06T08:39:19.198Z,5.60
2023-03-06T08:41:46.886Z,5.60
2023-03-06T08:44:14.565Z,5.70
2023-03-06T08:46:42.447Z,5.70
2023-03-06T08:49:12.147Z,5.70
2023-03-06T08:54:07.879Z,5.80
2023-03-06T08:56:35.500Z,5.90
2023-03-06T08:59:05.652Z,5.90
2023-03-06T09:01:36.849Z,5.90
2023-03-06T09:04:07.828Z,5.90
2023-03-06T09:06:38.848Z,5.90
2023-03-06T09:09:07.754Z,6.00
2023-03-06T09:11:36.319Z,6.00
2023-03-06T09:14:05.584Z,6.00
2023-03-06T09:16:33.473Z,6.00
2023-03-06T09:19:01.123Z,7.00
2023-03-06T09:21:29.005Z,6.10
2023-03-06T09:23:56.580Z,6.20
2023-03-06T09:26:32.848Z,6.30
2023-03-06T09:29:08.219Z,6.30
2023-03-06T09:31:36.171Z,6.40
2023-03-06T09:34:03.847Z,6.50
2023-03-06T09:36:31.511Z,6.50
2023-03-06T09:38:59.107Z,6.60
2023-03-06T09:41:31.676Z,6.60
2023-03-06T09:44:15.802Z,6.60
2023-03-06T09:47:07.065Z,6.60
2023-03-06T09:50:08.650Z,6.60
2023-03-06T09:53:08.876Z,6.60
2023-03-06T09:55:38.736Z,6.60
2023-03-06T09:58:14.673Z,6.60
2023-03-06T10:01:04.769Z,6.70
2023-03-06T10:04:06.097Z,6.60
2023-03-06T10:06:50.942Z,6.60
2023-03-06T10:09:33.681Z,6.60
2023-03-06T10:12:28.523Z,6.50
2023-03-06T10:15:08.989Z,6.50
2023-03-06T10:17:41.651Z,6.50
2023-03-06T10:20:48.442Z,6.50
2023-03-06T10:23:31.288Z,6.50
2023-03-06T10:26:09.918Z,6.50
2023-03-06T10:28:45.696Z,6.50
2023-03-06T10:31:24.119Z,6.50
2023-03-06T10:34:10.557Z,6.60
2023-03-06T10:36:38.183Z,6.60
2023-03-06T10:39:16.013Z,6.70
2023-03-06T10:41:45.420Z,6.70
2023-03-06T10:44:13.756Z,6.70
2023-03-06T10:46:46.774Z,6.70
2023-03-06T10:49:26.562Z,6.80
2023-03-06T10:52:07.047Z,6.90
2023-03-06T10:54:38.555Z,6.90
2023-03-06T10:57:30.207Z,7.00
2023-03-06T11:00:04.598Z,7.10
2023-03-06T11:02:38.545Z,7.10
2023-03-06T11:05:17.845Z,7.20
2023-03-06T11:07:57.410Z,7.20
2023-03-06T11:10:28.083Z,7.20
2023-03-06T11:13:34.922Z,7.20
2023-03-06T11:16:05.053Z,7.20
2023-03-06T11:19:00.732Z,7.20
2023-03-06T11:21:31.925Z,7.10
2023-03-06T11:24:40.762Z,7.10
2023-03-06T11:27:24.288Z,7.00
2023-03-06T11:29:55.079Z,6.90
2023-03-06T11:32:33.243Z,7.00
2023-03-06T11:35:10.300Z,6.90
2023-03-06T11:37:46.220Z,6.90
2023-03-06T11:40:17.541Z,6.90
2023-03-06T11:42:57.461Z,6.90
2023-03-06T11:45:37.254Z,6.80
2023-03-06T11:48:13.994Z,6.80
2023-03-06T11:50:45.695Z,6.80
2023-03-06T11:53:17.430Z,6.90
2023-03-06T11:56:03.573Z,6.80
2023-03-06T11:58:49.666Z,6.90
2023-03-06T12:01:17.177Z,6.90
2023-03-06T12:03:53.443Z,6.80
2023-03-06T12:06:23.757Z,6.80
2023-03-06T12:09:20.668Z,6.60
2023-03-06T12:12:29.681Z,6.60
2023-03-06T12:15:18.554Z,6.60
2023-03-06T12:18:14.061Z,6.50
2023-03-06T12:21:00.189Z,6.40
2023-03-06T12:24:13.061Z,6.30
2023-03-06T12:26:49.204Z,6.30
2023-03-06T12:29:59.051Z,6.20
2023-03-06T12:32:26.648Z,6.20
2023-03-06T12:35:13.192Z,6.20
2023-03-06T12:38:06.336Z,6.10
2023-03-06T12:40:42.706Z,6.00
2023-03-06T12:43:21.676Z,6.00
2023-03-06T12:45:54.384Z,6.00
2023-03-06T12:48:29.496Z,6.00
2023-03-06T12:50:57.904Z,6.10
2023-03-06T12:53:33.928Z,6.10
2023-03-06T12:56:03.229Z,6.10
2023-03-06T12:58:30.899Z,6.10
2023-03-06T13:01:36.252Z,6.00
2023-03-06T13:04:34.003Z,6.00
2023-03-06T13:07:10.799Z,6.10
2023-03-06T13:09:56.877Z,6.20
2023-03-06T13:12:46.020Z,6.40
2023-03-06T13:15:39.824Z,6.40
2023-03-06T13:18:22.707Z,6.40
2023-03-06T13:20:51.725Z,6.40
2023-03-06T13:23:35.287Z,6.50
2023-03-06T13:26:08.327Z,6.50
2023-03-06T13:28:47.773Z,6.70
2023-03-06T13:31:48.949Z,6.60
2023-03-06T13:34:31.879Z,6.60
2023-03-06T13:37:18.489Z,6.60
2023-03-06T13:39:55.430Z,6.70
2023-03-06T13:42:53.822Z,6.70
2023-03-06T13:45:30.101Z,7.90
2023-03-06T13:48:24.610Z,6.70
2023-03-06T13:50:48.157Z,6.70
2023-03-06T13:54:08.320Z,6.80
2023-03-06T13:57:13.639Z,6.80
2023-03-06T14:00:08.954Z,6.80
2023-03-06T14:03:02.324Z,6.80
2023-03-06T14:05:45.538Z,6.90
2023-03-06T14:08:28.752Z,6.90
2023-03-06T14:11:06.000Z,7.00
2023-03-06T14:13:46.640Z,7.00
2023-03-06T14:16:24.825Z,7.00
2023-03-06T14:18:55.230Z,7.00
2023-03-06T14:21:45.447Z,7.10
2023-03-06T14:24:20.849Z,7.00
2023-03-06T14:26:51.462Z,7.00
2023-03-06T14:29:24.801Z,7.00
2023-03-06T14:31:54.842Z,6.80
2023-03-06T14:34:40.397Z,6.80
2023-03-06T14:37:20.929Z,6.70
2023-03-06T14:39:49.606Z,6.60
2023-03-06T14:42:27.334Z,6.50
2023-03-06T14:45:16.750Z,6.40
2023-03-06T14:47:50.223Z,6.40
2023-03-06T14:50:18.604Z,6.30
2023-03-06T14:52:46.463Z,6.30
2023-03-06T14:55:23.286Z,6.30
2023-03-06T14:58:01.079Z,6.20
2023-03-06T15:00:40.118Z,6.10
2023-03-06T15:03:17.598Z,6.10
2023-03-06T15:05:47.033Z,6.00
2023-03-06T15:08:20.186Z,6.00
2023-03-06T15:11:02.878Z,6.00
2023-03-06T15:13:32.817Z,5.90
2023-03-06T15:16:01.908Z,5.90
2023-03-06T15:18:40.615Z,5.90
2023-03-06T15:21:14.228Z,5.90
2023-03-06T15:23:50.707Z,5.80
2023-03-06T15:26:23.896Z,5.80
2023-03-06T15:29:10.717Z,5.80
2023-03-06T15:31:43.639Z,5.60
2023-03-06T15:34:11.416Z,5.50
2023-03-06T15:36:42.975Z,5.40
2023-03-06T15:39:40.614Z,5.40
2023-03-06T15:42:25.603Z,5.40
2023-03-06T15:44:55.266Z,5.30
2023-03-06T15:47:23.222Z,5.20
2023-03-06T15:49:53.181Z,5.20
2023-03-06T15:52:22.198Z,5.20
2023-03-06T15:54:50.089Z,5.20
2023-03-06T15:57:29.070Z,5.20
2023-03-06T15:59:57.747Z,5.10
2023-03-06T16:02:25.464Z,5.10
2023-03-06T16:04:53.610Z,5.10
2023-03-06T16:07:21.337Z,5.10
2023-03-06T16:09:49.020Z,5.10
2023-03-06T16:12:21.461Z,5.10
2023-03-06T16:14:49.518Z,5.10
2023-03-06T16:17:17.772Z,5.10
2023-03-06T16:19:45.377Z,5.10
2023-03-06T16:22:13.735Z,5.10
2023-03-06T16:24:41.826Z,5.10
2023-03-06T16:27:17.818Z,5.20
2023-03-06T16:29:45.400Z,5.10
2023-03-06T16:32:12.952Z,5.20
2023-03-06T16:34:40.577Z,5.20
2023-03-06T16:37:12.711Z,5.20
2023-03-06T16:39:40.249Z,5.20
2023-03-06T16:42:07.915Z,5.30
2023-03-06T16:44:35.721Z,5.30
2023-03-06T16:47:03.532Z,5.30
2023-03-06T16:49:34.013Z,5.30
2023-03-06T16:52:01.725Z,5.30
2023-03-06T16:54:29.275Z,5.30
2023-03-06T16:56:56.888Z,5.30
2023-03-06T16:59:25.273Z,5.30
2023-03-06T17:01:52.917Z,5.30
2023-03-06T17:04:20.544Z,5.30
2023-03-06T17:06:48.113Z,5.30
2023-03-06T17:11:46.740Z,5.20
2023-03-06T17:14:14.389Z,5.10
2023-03-06T17:16:42.626Z,5.00
2023-03-06T17:19:14.412Z,4.90
2023-03-06T17:21:43.504Z,4.80
2023-03-06T17:24:11.051Z,4.80
2023-03-06T17:26:39.183Z,4.70
2023-03-06T17:29:07.161Z,4.70
2023-03-06T17:31:34.970Z,4.70
2023-03-06T17:34:02.592Z,4.60
2023-03-06T17:36:31.658Z,4.60
2023-03-06T17:39:00.670Z,4.60
2023-03-06T17:41:28.521Z,4.50
2023-03-06T17:43:58.217Z,4.50
2023-03-06T17:46:26.323Z,4.50
2023-03-06T17:48:55.247Z,4.40
2023-03-06T17:51:23.370Z,4.40
2023-03-06T17:53:52.366Z,4.40
2023-03-06T17:56:20.023Z,4.30
2023-03-06T17:58:47.700Z,4.30
2023-03-06T18:01:21.194Z,4.30
2023-03-06T18:03:50.826Z,4.30
2023-03-06T18:06:19.383Z,4.20
2023-03-06T18:08:47.358Z,4.20
2023-03-06T18:11:16.058Z,4.00
2023-03-06T18:13:46.481Z,4.10
2023-03-06T18:16:16.626Z,4.00
2023-03-06T18:18:44.909Z,4.00
2023-03-06T18:21:14.800Z,3.90
2023-03-06T18:23:42.443Z,3.90
2023-03-06T18:26:11.873Z,3.90
2023-03-06T18:28:42.546Z,3.90
2023-03-06T18:31:25.525Z,3.90
2023-03-06T18:33:55.298Z,3.90
2023-03-06T18:36:25.331Z,3.90
2023-03-06T18:38:53.421Z,3.80
2023-03-06T18:41:21.815Z,3.80
2023-03-06T18:43:56.345Z,3.80
2023-03-06T18:46:25.397Z,3.80
2023-03-06T18:48:55.414Z,3.70
2023-03-06T18:51:23.021Z,3.70
2023-03-06T18:53:50.566Z,3.70
2023-03-06T18:56:22.034Z,3.60
2023-03-06T18:58:50.635Z,3.60
2023-03-06T19:01:18.673Z,3.60
2023-03-06T19:03:46.884Z,3.50
2023-03-06T19:06:16.961Z,3.50
2023-03-06T19:08:44.873Z,3.40
2023-03-06T19:11:15.517Z,3.40
2023-03-06T19:13:44.106Z,3.40
2023-03-06T19:16:20.801Z,3.40
2023-03-06T19:18:48.669Z,3.30
2023-03-06T19:21:19.599Z,3.30
2023-03-06T19:23:47.230Z,3.30
2023-03-06T19:26:15.816Z,3.30
2023-03-06T19:28:44.417Z,3.30
2023-03-06T19:31:13.087Z,3.30
2023-03-06T19:33:42.219Z,3.30
2023-03-06T19:36:12.181Z,3.30
2023-03-06T19:38:41.030Z,3.40
2023-03-06T19:41:13.582Z,3.40
2023-03-06T19:43:43.106Z,3.40
2023-03-06T19:46:12.607Z,3.40
2023-03-06T19:48:43.629Z,3.50
2023-03-06T19:51:11.388Z,3.50
2023-03-06T19:53:39.925Z,3.50
2023-03-06T19:56:20.369Z,3.50
2023-03-06T19:58:48.059Z,3.50
2023-03-06T20:01:18.394Z,3.50
2023-03-06T20:03:46.623Z,3.50
2023-03-06T20:06:18.846Z,3.50
2023-03-06T20:08:47.891Z,3.40
2023-03-06T20:11:21.258Z,3.50
2023-03-06T20:13:49.633Z,3.40
2023-03-06T20:16:18.489Z,3.40
2023-03-06T20:18:46.228Z,3.40
2023-03-06T20:21:14.706Z,3.40
2023-03-06T20:23:42.969Z,3.40
2023-03-06T20:26:13.294Z,3.40
2023-03-06T20:28:42.378Z,3.30
2023-03-06T20:31:18.529Z,3.30
2023-03-06T20:33:48.838Z,3.30
2023-03-06T20:36:22.214Z,3.20
2023-03-06T20:38:50.762Z,3.20
2023-03-06T20:41:25.566Z,3.20
2023-03-06T20:43:53.979Z,3.20
2023-03-06T20:46:23.029Z,3.20
2023-03-06T20:48:52.358Z,3.20
2023-03-06T20:51:28.594Z,3.20
2023-03-06T20:53:56.669Z,3.20
2023-03-06T20:56:30.555Z,3.10
2023-03-06T20:59:01.400Z,3.10
2023-03-06T21:01:41.331Z,3.10
2023-03-06T21:04:10.649Z,3.10
2023-03-06T21:06:38.411Z,3.10
2023-03-06T21:09:07.080Z,3.10
2023-03-06T21:11:35.518Z,3.10
2023-03-06T21:14:03.273Z,3.10
2023-03-06T21:16:31.962Z,3.10
2023-03-06T21:19:02.415Z,3.10
2023-03-06T21:21:32.918Z,3.10
2023-03-06T21:24:01.417Z,3.10
2023-03-06T21:26:30.836Z,3.10
2023-03-06T21:28:59.045Z,3.10
2023-03-06T21:31:28.409Z,3.10
2023-03-06T21:33:57.146Z,3.10
2023-03-06T21:36:25.940Z,3.10
2023-03-06T21:41:24.859Z,3.10
2023-03-06T21:44:04.401Z,3.10
2023-03-06T21:46:32.924Z,3.10
2023-03-06T21:49:03.911Z,3.10
2023-03-06T21:51:31.883Z,3.10
2023-03-06T21:53:59.669Z,3.10
2023-03-06T21:56:28.515Z,3.10
2023-03-06T21:58:56.536Z,3.10
2023-03-06T22:01:27.278Z,3.10
2023-03-06T22:03:55.971Z,3.10
2023-03-06T22:06:26.662Z,3.10
2023-03-06T22:08:59.804Z,3.20
2023-03-06T22:11:31.282Z,3.10
2023-03-06T22:13:59.065Z,3.10
2023-03-06T22:16:26.793Z,3.10
2023-03-06T22:18:54.517Z,3.10
2023-03-06T22:21:23.342Z,3.10
2023-03-06T22:23:58.702Z,3.10
2023-03-06T22:26:30.338Z,3.10
2023-03-06T22:28:58.179Z,3.10
2023-03-06T22:31:28.636Z,3.10
2023-03-06T22:33:58.456Z,3.10
2023-03-06T22:36:27.794Z,3.10
2023-03-06T22:38:57.553Z,3.10
2023-03-06T22:41:28.557Z,3.10
2023-03-06T22:44:00.792Z,3.10
2023-03-06T22:46:29.155Z,3.10
2023-03-06T22:49:01.164Z,3.10
2023-03-06T22:51:29.623Z,3.10
2023-03-06T22:53:58.255Z,3.00
2023-03-06T22:56:26.357Z,3.10
2023-03-06T22:58:54.000Z,3.10
2023-03-06T23:01:25.218Z,3.10
2023-03-06T23:03:58.558Z,3.00
2023-03-06T23:06:32.393Z,3.00
2023-03-06T23:09:01.645Z,3.00
2023-03-06T23:11:29.949Z,3.00
2023-03-06T23:14:19.727Z,3.00
2023-03-06T23:17:06.287Z,3.00
2023-03-06T23:19:53.152Z,3.00
2023-03-06T23:22:39.131Z,3.00
2023-03-06T23:25:27.381Z,2.90
2023-03-06T23:27:55.743Z,3.00
2023-03-06T23:30:23.544Z,3.00
2023-03-06T23:32:51.101Z,2.90
2023-03-06T23:35:19.165Z,2.90
2023-03-06T23:37:46.924Z,3.00
2023-03-06T23:40:14.970Z,3.00
2023-03-06T23:42:45.392Z,2.90
2023-03-06T23:45:15.730Z,2.90
2023-03-06T23:47:50.333Z,2.90
2023-03-06T23:50:18.454Z,2.90
2023-03-06T23:52:46.354Z,2.90
2023-03-06T23:55:14.271Z,2.80
2023-03-06T23:57:41.924Z,2.80
